Fields Landing, California
Current Conditions -  °F | °C
As of 6:35 PM on Friday 28 Nov 2014 (Local Time) from KFOT Reporting Station
Overcast Overcast  
Wind Chill: 55°   Ceiling: 2100
Heat Index: 55°   Visibility: 5mi
Dew Point: 55°   Wind: 5mph
Humidity: 100%   Direction: 120°ESE
Pressure: 29.78"   Gusts: NA
Location:  40.72°N, 124.22°W
Report Text: KFOT 290235Z AUTO 12004KT 5SM BKN021 OVC028 13/13 A2978 RMK AO1 P0001
Loading
Personal Weather Stations






























Interactive Weather Map New forecast layout! Learn more

10-Day Weather Forecast

Advertisements
Track Severe Weather on mobile